sensor_id;sensor_type;location;lat;lon;timestamp;pressure;altitude;pressure_sealevel;temperature;humidity
60719;BME280;46567;51.660;5.824;2023-09-18T00:03:20;128430.0;;;190.6;100.0
60719;BME280;46567;51.660;5.824;2023-09-18T00:08:19;128410.0;;;190.6;100.0
60719;BME280;46567;51.660;5.824;2023-09-18T00:13:20;128400.0;;;190.6;100.0
60719;BME280;46567;51.660;5.824;2023-09-18T00:18:19;128390.0;;;190.6;100.0
60719;BME280;46567;51.660;5.824;2023-09-18T00:23:19;128380.0;;;190.6;100.0
60719;BME280;46567;51.660;5.824;2023-09-18T00:28:19;128370.0;;;190.6;100.0
60719;BME280;46567;51.660;5.824;2023-09-18T00:33:19;128380.0;;;190.6;100.0
60719;BME280;46567;51.660;5.824;2023-09-18T00:38:19;128350.0;;;190.6;100.0
60719;BME280;46567;51.660;5.824;2023-09-18T00:43:19;128350.0;;;190.6;100.0
60719;BME280;46567;51.660;5.824;2023-09-18T00:48:19;128350.0;;;190.6;100.0
60719;BME280;46567;51.660;5.824;2023-09-18T00:53:25;128310.0;;;190.6;100.0
60719;BME280;46567;51.660;5.824;2023-09-18T00:58:19;128310.0;;;190.6;100.0
60719;BME280;46567;51.660;5.824;2023-09-18T01:03:20;128290.0;;;190.6;100.0
60719;BME280;46567;51.660;5.824;2023-09-18T01:08:19;128280.0;;;190.6;100.0
60719;BME280;46567;51.660;5.824;2023-09-18T01:14:05;128250.0;;;190.6;100.0
60719;BME280;46567;51.660;5.824;2023-09-18T01:18:19;128220.0;;;190.6;100.0
60719;BME280;46567;51.660;5.824;2023-09-18T01:23:19;128200.0;;;190.6;100.0
60719;BME280;46567;51.660;5.824;2023-09-18T01:28:19;128200.0;;;190.6;100.0
60719;BME280;46567;51.660;5.824;2023-09-18T01:33:20;128190.0;;;190.6;100.0
60719;BME280;46567;51.660;5.824;2023-09-18T01:38:20;128170.0;;;190.6;100.0
60719;BME280;46567;51.660;5.824;2023-09-18T01:43:19;128170.0;;;190.6;100.0
60719;BME280;46567;51.660;5.824;2023-09-18T01:48:19;128150.0;;;190.6;100.0
60719;BME280;46567;51.660;5.824;2023-09-18T01:53:19;128130.0;;;190.6;100.0
60719;BME280;46567;51.660;5.824;2023-09-18T01:58:19;128100.0;;;190.6;100.0
60719;BME280;46567;51.660;5.824;2023-09-18T02:03:19;128090.0;;;190.6;100.0
60719;BME280;46567;51.660;5.824;2023-09-18T02:08:19;128080.0;;;190.6;100.0
60719;BME280;46567;51.660;5.824;2023-09-18T02:13:19;128080.0;;;190.6;100.0
60719;BME280;46567;51.660;5.824;2023-09-18T02:18:19;128050.0;;;190.6;100.0
60719;BME280;46567;51.660;5.824;2023-09-18T02:23:19;128030.0;;;190.6;100.0
60719;BME280;46567;51.660;5.824;2023-09-18T02:28:19;128010.0;;;190.6;100.0
60719;BME280;46567;51.660;5.824;2023-09-18T02:33:19;127990.0;;;190.6;100.0
60719;BME280;46567;51.660;5.824;2023-09-18T02:38:19;127970.0;;;190.6;100.0
60719;BME280;46567;51.660;5.824;2023-09-18T02:43:20;127950.0;;;190.6;100.0
60719;BME280;46567;51.660;5.824;2023-09-18T02:48:19;127930.0;;;190.6;100.0
60719;BME280;46567;51.660;5.824;2023-09-18T02:53:21;127910.0;;;190.6;100.0
60719;BME280;46567;51.660;5.824;2023-09-18T02:58:20;127890.0;;;190.6;100.0
60719;BME280;46567;51.660;5.824;2023-09-18T03:03:19;127890.0;;;190.6;100.0
60719;BME280;46567;51.660;5.824;2023-09-18T03:08:19;127880.0;;;190.6;100.0
60719;BME280;46567;51.660;5.824;2023-09-18T03:13:21;127850.0;;;190.6;100.0
60719;BME280;46567;51.660;5.824;2023-09-18T03:18:19;127870.0;;;190.6;100.0
60719;BME280;46567;51.660;5.824;2023-09-18T03:23:19;127900.0;;;190.6;100.0
60719;BME280;46567;51.660;5.824;2023-09-18T03:28:19;127910.0;;;190.6;100.0
60719;BME280;46567;51.660;5.824;2023-09-18T03:33:19;127910.0;;;190.6;100.0
60719;BME280;46567;51.660;5.824;2023-09-18T03:38:19;127920.0;;;190.6;100.0
60719;BME280;46567;51.660;5.824;2023-09-18T03:43:19;127910.0;;;190.6;100.0
60719;BME280;46567;51.660;5.824;2023-09-18T03:48:19;127910.0;;;190.6;100.0
60719;BME280;46567;51.660;5.824;2023-09-18T03:53:19;127900.0;;;190.6;100.0
60719;BME280;46567;51.660;5.824;2023-09-18T03:58:19;127900.0;;;190.6;100.0
60719;BME280;46567;51.660;5.824;2023-09-18T04:03:19;127870.0;;;190.6;100.0
60719;BME280;46567;51.660;5.824;2023-09-18T04:08:19;127890.0;;;190.6;100.0
60719;BME280;46567;51.660;5.824;2023-09-18T04:13:19;127880.0;;;190.6;100.0
60719;BME280;46567;51.660;5.824;2023-09-18T04:18:19;127840.0;;;190.6;100.0
60719;BME280;46567;51.660;5.824;2023-09-18T04:23:26;127800.0;;;190.6;100.0
60719;BME280;46567;51.660;5.824;2023-09-18T04:28:21;127810.0;;;190.6;100.0
60719;BME280;46567;51.660;5.824;2023-09-18T04:33:19;127810.0;;;190.6;100.0
60719;BME280;46567;51.660;5.824;2023-09-18T04:38:19;127820.0;;;190.6;100.0
60719;BME280;46567;51.660;5.824;2023-09-18T04:43:19;127790.0;;;190.6;100.0
60719;BME280;46567;51.660;5.824;2023-09-18T04:48:19;127750.0;;;190.6;100.0
60719;BME280;46567;51.660;5.824;2023-09-18T04:53:19;127720.0;;;190.6;100.0
60719;BME280;46567;51.660;5.824;2023-09-18T04:58:19;127700.0;;;190.6;100.0
60719;BME280;46567;51.660;5.824;2023-09-18T05:03:19;127700.0;;;190.6;100.0
60719;BME280;46567;51.660;5.824;2023-09-18T05:08:19;127690.0;;;190.6;100.0
60719;BME280;46567;51.660;5.824;2023-09-18T05:13:19;127680.0;;;190.6;100.0
60719;BME280;46567;51.660;5.824;2023-09-18T05:18:19;127700.0;;;190.6;100.0
60719;BME280;46567;51.660;5.824;2023-09-18T05:23:19;127700.0;;;190.6;100.0
60719;BME280;46567;51.660;5.824;2023-09-18T05:28:19;127720.0;;;190.6;100.0
60719;BME280;46567;51.660;5.824;2023-09-18T05:33:19;127720.0;;;190.6;100.0
60719;BME280;46567;51.660;5.824;2023-09-18T05:38:19;127760.0;;;190.6;100.0
60719;BME280;46567;51.660;5.824;2023-09-18T05:43:19;127770.0;;;190.6;100.0
60719;BME280;46567;51.660;5.824;2023-09-18T05:48:19;127780.0;;;190.6;100.0
60719;BME280;46567;51.660;5.824;2023-09-18T05:53:19;127800.0;;;190.6;100.0
60719;BME280;46567;51.660;5.824;2023-09-18T05:58:19;127810.0;;;190.6;100.0
60719;BME280;46567;51.660;5.824;2023-09-18T06:03:19;127820.0;;;190.6;100.0
60719;BME280;46567;51.660;5.824;2023-09-18T06:08:19;127820.0;;;190.6;100.0
60719;BME280;46567;51.660;5.824;2023-09-18T06:13:19;127810.0;;;190.6;100.0
60719;BME280;46567;51.660;5.824;2023-09-18T06:18:19;127820.0;;;190.6;100.0
60719;BME280;46567;51.660;5.824;2023-09-18T06:23:19;127850.0;;;190.6;100.0
60719;BME280;46567;51.660;5.824;2023-09-18T06:28:19;127840.0;;;190.6;100.0
60719;BME280;46567;51.660;5.824;2023-09-18T06:33:19;127850.0;;;190.6;100.0
60719;BME280;46567;51.660;5.824;2023-09-18T06:38:19;127870.0;;;190.6;100.0
60719;BME280;46567;51.660;5.824;2023-09-18T06:43:19;127850.0;;;190.6;100.0
60719;BME280;46567;51.660;5.824;2023-09-18T06:48:19;127860.0;;;190.6;100.0
60719;BME280;46567;51.660;5.824;2023-09-18T06:53:19;127870.0;;;190.6;100.0
60719;BME280;46567;51.660;5.824;2023-09-18T06:58:19;127870.0;;;190.6;100.0
60719;BME280;46567;51.660;5.824;2023-09-18T07:03:19;127870.0;;;190.6;100.0
60719;BME280;46567;51.660;5.824;2023-09-18T07:08:19;127880.0;;;190.6;100.0
60719;BME280;46567;51.660;5.824;2023-09-18T07:13:19;127850.0;;;190.6;100.0
60719;BME280;46567;51.660;5.824;2023-09-18T07:18:19;127840.0;;;190.6;100.0
60719;BME280;46567;51.660;5.824;2023-09-18T07:23:19;127860.0;;;190.6;100.0
60719;BME280;46567;51.660;5.824;2023-09-18T07:28:19;127840.0;;;190.6;100.0
60719;BME280;46567;51.660;5.824;2023-09-18T07:33:19;127850.0;;;190.6;100.0
60719;BME280;46567;51.660;5.824;2023-09-18T07:38:19;127870.0;;;190.6;100.0
60719;BME280;46567;51.660;5.824;2023-09-18T07:43:19;127870.0;;;190.6;100.0
60719;BME280;46567;51.660;5.824;2023-09-18T07:48:19;127880.0;;;190.6;100.0
60719;BME280;46567;51.660;5.824;2023-09-18T07:53:20;127880.0;;;190.6;100.0
60719;BME280;46567;51.660;5.824;2023-09-18T07:58:19;127880.0;;;190.6;100.0
60719;BME280;46567;51.660;5.824;2023-09-18T08:03:19;127880.0;;;190.6;100.0
60719;BME280;46567;51.660;5.824;2023-09-18T08:08:20;127840.0;;;190.6;100.0
60719;BME280;46567;51.660;5.824;2023-09-18T08:13:19;127830.0;;;190.6;100.0
60719;BME280;46567;51.660;5.824;2023-09-18T08:18:19;127820.0;;;190.6;100.0
60719;BME280;46567;51.660;5.824;2023-09-18T08:23:19;127810.0;;;190.6;100.0
60719;BME280;46567;51.660;5.824;2023-09-18T08:28:19;127810.0;;;190.6;100.0
60719;BME280;46567;51.660;5.824;2023-09-18T08:33:20;127800.0;;;190.6;100.0
60719;BME280;46567;51.660;5.824;2023-09-18T08:38:19;127780.0;;;190.6;100.0
60719;BME280;46567;51.660;5.824;2023-09-18T08:43:21;127780.0;;;190.6;100.0
60719;BME280;46567;51.660;5.824;2023-09-18T08:48:20;127780.0;;;190.6;100.0
60719;BME280;46567;51.660;5.824;2023-09-18T08:53:19;127800.0;;;190.6;100.0
60719;BME280;46567;51.660;5.824;2023-09-18T08:58:19;127780.0;;;190.6;100.0
60719;BME280;46567;51.660;5.824;2023-09-18T09:03:19;127800.0;;;190.6;100.0
60719;BME280;46567;51.660;5.824;2023-09-18T09:08:19;127810.0;;;190.6;100.0
60719;BME280;46567;51.660;5.824;2023-09-18T09:13:19;127790.0;;;190.6;100.0
60719;BME280;46567;51.660;5.824;2023-09-18T09:18:20;127780.0;;;190.6;100.0
60719;BME280;46567;51.660;5.824;2023-09-18T09:23:19;127730.0;;;190.6;100.0
60719;BME280;46567;51.660;5.824;2023-09-18T09:28:29;127630.0;;;190.6;100.0
60719;BME280;46567;51.660;5.824;2023-09-18T09:33:23;127560.0;;;190.6;100.0
60719;BME280;46567;51.660;5.824;2023-09-18T09:38:19;127520.0;;;190.6;100.0
60719;BME280;46567;51.660;5.824;2023-09-18T09:43:19;127480.0;;;190.6;100.0
60719;BME280;46567;51.660;5.824;2023-09-18T09:48:19;127430.0;;;190.6;100.0
60719;BME280;46567;51.660;5.824;2023-09-18T09:53:23;127410.0;;;190.6;100.0
60719;BME280;46567;51.660;5.824;2023-09-18T09:58:27;127380.0;;;190.6;100.0
60719;BME280;46567;51.660;5.824;2023-09-18T10:03:20;127390.0;;;190.6;99.5
60719;BME280;46567;51.660;5.824;2023-09-18T10:08:22;127370.0;;;190.6;98.5
60719;BME280;46567;51.660;5.824;2023-09-18T10:13:26;127370.0;;;190.6;97.5
60719;BME280;46567;51.660;5.824;2023-09-18T10:18:28;127360.0;;;190.6;97.5
60719;BME280;46567;51.660;5.824;2023-09-18T10:23:28;127380.0;;;190.6;94.0
60719;BME280;46567;51.660;5.824;2023-09-18T10:28:19;127410.0;;;190.6;94.5
60719;BME280;46567;51.660;5.824;2023-09-18T10:33:20;127450.0;;;190.6;93.5
60719;BME280;46567;51.660;5.824;2023-09-18T10:38:19;127430.0;;;190.6;94.0
60719;BME280;46567;51.660;5.824;2023-09-18T10:43:19;127420.0;;;190.6;93.5
60719;BME280;46567;51.660;5.824;2023-09-18T10:48:20;127410.0;;;190.6;94.0
60719;BME280;46567;51.660;5.824;2023-09-18T10:53:19;127360.0;;;190.6;94.0
60719;BME280;46567;51.660;5.824;2023-09-18T10:58:23;127270.0;;;190.6;92.5
60719;BME280;46567;51.660;5.824;2023-09-18T11:03:22;127210.0;;;190.6;90.5
60719;BME280;46567;51.660;5.824;2023-09-18T11:08:26;127190.0;;;190.6;89.5
60719;BME280;46567;51.660;5.824;2023-09-18T11:13:27;127190.0;;;190.6;89.5
60719;BME280;46567;51.660;5.824;2023-09-18T11:18:19;127110.0;;;190.6;90.0
60719;BME280;46567;51.660;5.824;2023-09-18T11:23:34;127060.0;;;190.6;88.0
60719;BME280;46567;51.660;5.824;2023-09-18T11:28:25;127020.0;;;190.6;86.0
60719;BME280;46567;51.660;5.824;2023-09-18T11:33:30;127070.0;;;190.6;84.0
60719;BME280;46567;51.660;5.824;2023-09-18T11:38:21;127120.0;;;190.6;85.0
60719;BME280;46567;51.660;5.824;2023-09-18T11:43:24;127170.0;;;190.6;84.5
60719;BME280;46567;51.660;5.824;2023-09-18T11:48:21;127230.0;;;190.6;85.0
60719;BME280;46567;51.660;5.824;2023-09-18T11:53:21;127280.0;;;190.6;85.5
60719;BME280;46567;51.660;5.824;2023-09-18T11:58:19;127310.0;;;190.6;86.0
60719;BME280;46567;51.660;5.824;2023-09-18T12:03:21;127370.0;;;190.6;86.5
60719;BME280;46567;51.660;5.824;2023-09-18T12:08:20;127350.0;;;190.6;88.0
60719;BME280;46567;51.660;5.824;2023-09-18T12:13:20;127280.0;;;190.6;86.0
60719;BME280;46567;51.660;5.824;2023-09-18T12:18:19;127220.0;;;190.6;85.5
60719;BME280;46567;51.660;5.824;2023-09-18T12:23:19;127160.0;;;190.6;84.5
60719;BME280;46567;51.660;5.824;2023-09-18T12:28:19;127130.0;;;190.6;83.0
60719;BME280;46567;51.660;5.824;2023-09-18T12:33:20;127110.0;;;190.6;82.5
60719;BME280;46567;51.660;5.824;2023-09-18T12:38:19;127060.0;;;190.6;82.5
60719;BME280;46567;51.660;5.824;2023-09-18T12:43:20;127010.0;;;190.6;80.5
60719;BME280;46567;51.660;5.824;2023-09-18T12:48:19;127000.0;;;190.6;78.0
60719;BME280;46567;51.660;5.824;2023-09-18T12:53:22;127020.0;;;190.6;77.5
60719;BME280;46567;51.660;5.824;2023-09-18T12:58:20;127000.0;;;190.6;77.5
60719;BME280;46567;51.660;5.824;2023-09-18T13:03:20;126970.0;;;190.6;76.5
60719;BME280;46567;51.660;5.824;2023-09-18T13:08:22;126910.0;;;190.6;76.0
60719;BME280;46567;51.660;5.824;2023-09-18T13:13:20;126890.0;;;190.6;74.0
60719;BME280;46567;51.660;5.824;2023-09-18T13:18:19;126900.0;;;190.6;73.0
60719;BME280;46567;51.660;5.824;2023-09-18T13:23:20;126980.0;;;190.6;73.0
60719;BME280;46567;51.660;5.824;2023-09-18T13:28:19;127010.0;;;190.6;74.0
60719;BME280;46567;51.660;5.824;2023-09-18T13:33:20;127030.0;;;190.6;74.0
60719;BME280;46567;51.660;5.824;2023-09-18T13:38:19;127000.0;;;190.6;75.0
60719;BME280;46567;51.660;5.824;2023-09-18T13:43:20;126920.0;;;190.6;75.0
60719;BME280;46567;51.660;5.824;2023-09-18T13:48:20;126870.0;;;190.6;73.5
60719;BME280;46567;51.660;5.824;2023-09-18T13:53:20;126830.0;;;190.6;71.5
60719;BME280;46567;51.660;5.824;2023-09-18T13:58:20;126790.0;;;190.6;72.5
60719;BME280;46567;51.660;5.824;2023-09-18T14:03:20;126750.0;;;190.6;71.5
60719;BME280;46567;51.660;5.824;2023-09-18T14:08:19;126740.0;;;190.6;71.0
60719;BME280;46567;51.660;5.824;2023-09-18T14:13:19;126730.0;;;190.6;69.5
60719;BME280;46567;51.660;5.824;2023-09-18T14:18:19;126720.0;;;190.6;68.5
60719;BME280;46567;51.660;5.824;2023-09-18T14:23:19;126710.0;;;190.6;68.0
60719;BME280;46567;51.660;5.824;2023-09-18T14:28:19;126720.0;;;190.6;67.0
60719;BME280;46567;51.660;5.824;2023-09-18T14:33:20;126700.0;;;190.6;67.5
60719;BME280;46567;51.660;5.824;2023-09-18T14:38:20;126690.0;;;190.6;66.0
60719;BME280;46567;51.660;5.824;2023-09-18T14:43:20;126690.0;;;190.6;64.5
60719;BME280;46567;51.660;5.824;2023-09-18T14:48:20;126690.0;;;190.6;66.0
60719;BME280;46567;51.660;5.824;2023-09-18T14:53:19;126740.0;;;190.6;65.0
60719;BME280;46567;51.660;5.824;2023-09-18T14:58:20;126790.0;;;190.6;63.5
60719;BME280;46567;51.660;5.824;2023-09-18T15:03:20;126810.0;;;190.6;64.5
60719;BME280;46567;51.660;5.824;2023-09-18T15:08:20;126830.0;;;190.6;64.0
60719;BME280;46567;51.660;5.824;2023-09-18T15:13:20;126850.0;;;190.6;63.5
60719;BME280;46567;51.660;5.824;2023-09-18T15:18:20;126870.0;;;190.6;64.0
60719;BME280;46567;51.660;5.824;2023-09-18T15:23:20;126910.0;;;190.6;64.0
60719;BME280;46567;51.660;5.824;2023-09-18T15:28:20;126950.0;;;190.6;64.0
60719;BME280;46567;51.660;5.824;2023-09-18T15:33:20;126970.0;;;190.6;65.0
60719;BME280;46567;51.660;5.824;2023-09-18T15:38:20;127000.0;;;190.6;64.5
60719;BME280;46567;51.660;5.824;2023-09-18T15:43:19;127180.0;;;190.6;65.5
60719;BME280;46567;51.660;5.824;2023-09-18T15:48:20;127330.0;;;190.6;65.0
60719;BME280;46567;51.660;5.824;2023-09-18T15:53:19;127580.0;;;190.6;70.5
60719;BME280;46567;51.660;5.824;2023-09-18T15:58:20;127800.0;;;190.6;75.0
60719;BME280;46567;51.660;5.824;2023-09-18T16:03:20;127980.0;;;190.6;79.0
60719;BME280;46567;51.660;5.824;2023-09-18T16:08:20;128130.0;;;190.6;82.5
60719;BME280;46567;51.660;5.824;2023-09-18T16:13:19;128270.0;;;190.6;86.5
60719;BME280;46567;51.660;5.824;2023-09-18T16:23:20;128380.0;;;190.6;92.0
60719;BME280;46567;51.660;5.824;2023-09-18T16:33:20;128400.0;;;190.6;94.0
60719;BME280;46567;51.660;5.824;2023-09-18T16:38:19;128410.0;;;190.6;95.0
60719;BME280;46567;51.660;5.824;2023-09-18T16:43:20;128410.0;;;190.6;96.0
60719;BME280;46567;51.660;5.824;2023-09-18T16:48:19;128380.0;;;190.6;96.5
60719;BME280;46567;51.660;5.824;2023-09-18T16:53:20;128370.0;;;190.6;97.5
60719;BME280;46567;51.660;5.824;2023-09-18T16:58:19;128320.0;;;190.6;98.0
60719;BME280;46567;51.660;5.824;2023-09-18T17:03:19;128270.0;;;190.6;98.0
60719;BME280;46567;51.660;5.824;2023-09-18T17:08:19;128250.0;;;190.6;98.0
60719;BME280;46567;51.660;5.824;2023-09-18T17:13:19;128260.0;;;190.6;98.5
60719;BME280;46567;51.660;5.824;2023-09-18T17:18:19;128280.0;;;190.6;98.5
60719;BME280;46567;51.660;5.824;2023-09-18T17:23:20;128320.0;;;190.6;99.0
60719;BME280;46567;51.660;5.824;2023-09-18T17:28:20;128330.0;;;190.6;99.5
60719;BME280;46567;51.660;5.824;2023-09-18T17:33:19;128340.0;;;190.6;100.0
60719;BME280;46567;51.660;5.824;2023-09-18T17:38:19;128330.0;;;190.6;100.0
60719;BME280;46567;51.660;5.824;2023-09-18T17:43:19;128340.0;;;190.6;100.0
60719;BME280;46567;51.660;5.824;2023-09-18T17:48:20;128350.0;;;190.6;100.0
60719;BME280;46567;51.660;5.824;2023-09-18T17:53:20;128330.0;;;190.6;100.0
60719;BME280;46567;51.660;5.824;2023-09-18T17:58:20;128340.0;;;190.6;100.0
60719;BME280;46567;51.660;5.824;2023-09-18T18:03:19;128320.0;;;190.6;100.0
60719;BME280;46567;51.660;5.824;2023-09-18T18:08:20;128320.0;;;190.6;100.0
60719;BME280;46567;51.660;5.824;2023-09-18T18:13:20;128330.0;;;190.6;100.0
60719;BME280;46567;51.660;5.824;2023-09-18T18:18:20;128350.0;;;190.6;100.0
60719;BME280;46567;51.660;5.824;2023-09-18T18:23:20;128360.0;;;190.6;100.0
60719;BME280;46567;51.660;5.824;2023-09-18T18:28:20;128360.0;;;190.6;100.0
60719;BME280;46567;51.660;5.824;2023-09-18T18:38:20;128360.0;;;190.6;100.0
60719;BME280;46567;51.660;5.824;2023-09-18T18:43:20;128370.0;;;190.6;100.0
60719;BME280;46567;51.660;5.824;2023-09-18T18:48:22;128370.0;;;190.6;100.0
60719;BME280;46567;51.660;5.824;2023-09-18T18:53:20;128390.0;;;190.6;100.0
60719;BME280;46567;51.660;5.824;2023-09-18T18:58:20;128400.0;;;190.6;100.0
60719;BME280;46567;51.660;5.824;2023-09-18T19:03:20;128400.0;;;190.6;100.0
60719;BME280;46567;51.660;5.824;2023-09-18T19:08:20;128420.0;;;190.6;100.0
60719;BME280;46567;51.660;5.824;2023-09-18T19:13:20;128410.0;;;190.6;100.0
60719;BME280;46567;51.660;5.824;2023-09-18T19:18:20;128430.0;;;190.6;100.0
60719;BME280;46567;51.660;5.824;2023-09-18T19:23:20;128440.0;;;190.6;100.0
60719;BME280;46567;51.660;5.824;2023-09-18T19:28:20;128460.0;;;190.6;100.0
60719;BME280;46567;51.660;5.824;2023-09-18T19:33:20;128480.0;;;190.6;100.0
60719;BME280;46567;51.660;5.824;2023-09-18T19:38:20;128490.0;;;190.6;100.0
60719;BME280;46567;51.660;5.824;2023-09-18T19:43:20;128510.0;;;190.6;100.0
60719;BME280;46567;51.660;5.824;2023-09-18T19:48:20;128520.0;;;190.6;100.0
60719;BME280;46567;51.660;5.824;2023-09-18T19:53:20;128540.0;;;190.6;100.0
60719;BME280;46567;51.660;5.824;2023-09-18T19:58:20;128540.0;;;190.6;100.0
60719;BME280;46567;51.660;5.824;2023-09-18T20:03:20;128560.0;;;190.6;100.0
60719;BME280;46567;51.660;5.824;2023-09-18T20:08:20;128580.0;;;190.6;100.0
60719;BME280;46567;51.660;5.824;2023-09-18T20:13:20;128600.0;;;190.6;100.0
60719;BME280;46567;51.660;5.824;2023-09-18T20:18:20;128620.0;;;190.6;100.0
60719;BME280;46567;51.660;5.824;2023-09-18T20:23:20;128650.0;;;190.6;100.0
60719;BME280;46567;51.660;5.824;2023-09-18T20:28:20;128650.0;;;190.6;100.0
60719;BME280;46567;51.660;5.824;2023-09-18T20:33:20;128690.0;;;190.6;100.0
60719;BME280;46567;51.660;5.824;2023-09-18T20:38:20;128690.0;;;190.6;100.0
60719;BME280;46567;51.660;5.824;2023-09-18T20:43:20;128710.0;;;190.6;100.0
60719;BME280;46567;51.660;5.824;2023-09-18T20:48:20;128740.0;;;190.6;100.0
60719;BME280;46567;51.660;5.824;2023-09-18T20:53:20;128760.0;;;190.6;100.0
60719;BME280;46567;51.660;5.824;2023-09-18T20:58:20;128770.0;;;190.6;100.0
60719;BME280;46567;51.660;5.824;2023-09-18T21:03:20;128790.0;;;190.6;100.0
60719;BME280;46567;51.660;5.824;2023-09-18T21:08:20;128810.0;;;190.6;100.0
60719;BME280;46567;51.660;5.824;2023-09-18T21:13:20;128830.0;;;190.6;100.0
60719;BME280;46567;51.660;5.824;2023-09-18T21:18:20;128870.0;;;190.6;100.0
60719;BME280;46567;51.660;5.824;2023-09-18T21:23:20;128880.0;;;190.6;100.0
60719;BME280;46567;51.660;5.824;2023-09-18T21:28:20;128910.0;;;190.6;100.0
60719;BME280;46567;51.660;5.824;2023-09-18T21:33:20;128930.0;;;190.6;100.0
60719;BME280;46567;51.660;5.824;2023-09-18T21:38:20;128950.0;;;190.6;100.0
60719;BME280;46567;51.660;5.824;2023-09-18T21:43:20;128970.0;;;190.6;100.0
60719;BME280;46567;51.660;5.824;2023-09-18T21:48:20;128970.0;;;190.6;100.0
60719;BME280;46567;51.660;5.824;2023-09-18T21:53:20;128990.0;;;190.6;100.0
60719;BME280;46567;51.660;5.824;2023-09-18T21:58:20;129030.0;;;190.6;100.0
60719;BME280;46567;51.660;5.824;2023-09-18T22:03:20;129050.0;;;190.6;100.0
60719;BME280;46567;51.660;5.824;2023-09-18T22:08:20;129070.0;;;190.6;100.0
60719;BME280;46567;51.660;5.824;2023-09-18T22:13:20;129080.0;;;190.6;100.0
60719;BME280;46567;51.660;5.824;2023-09-18T22:18:20;129100.0;;;190.6;100.0
60719;BME280;46567;51.660;5.824;2023-09-18T22:23:20;129110.0;;;190.6;100.0
60719;BME280;46567;51.660;5.824;2023-09-18T22:28:20;129120.0;;;190.6;100.0
60719;BME280;46567;51.660;5.824;2023-09-18T22:33:20;129130.0;;;190.6;100.0
60719;BME280;46567;51.660;5.824;2023-09-18T22:38:32;129160.0;;;190.6;100.0
60719;BME280;46567;51.660;5.824;2023-09-18T22:58:20;129200.0;;;190.6;100.0
60719;BME280;46567;51.660;5.824;2023-09-18T23:03:20;129220.0;;;190.6;100.0
60719;BME280;46567;51.660;5.824;2023-09-18T23:08:20;129220.0;;;190.6;100.0
60719;BME280;46567;51.660;5.824;2023-09-18T23:13:20;129250.0;;;190.6;100.0
60719;BME280;46567;51.660;5.824;2023-09-18T23:18:20;129250.0;;;190.6;100.0
60719;BME280;46567;51.660;5.824;2023-09-18T23:23:20;129260.0;;;190.6;100.0
60719;BME280;46567;51.660;5.824;2023-09-18T23:28:20;129290.0;;;190.6;100.0
60719;BME280;46567;51.660;5.824;2023-09-18T23:33:20;129280.0;;;190.6;100.0
60719;BME280;46567;51.660;5.824;2023-09-18T23:38:20;129300.0;;;190.6;100.0
60719;BME280;46567;51.660;5.824;2023-09-18T23:43:20;129300.0;;;190.6;100.0
60719;BME280;46567;51.660;5.824;2023-09-18T23:48:20;129320.0;;;190.6;100.0
60719;BME280;46567;51.660;5.824;2023-09-18T23:53:20;129340.0;;;190.6;100.0
60719;BME280;46567;51.660;5.824;2023-09-18T23:58:20;129350.0;;;190.6;100.0
